Date,TemperatureHighF,TemperatureAvgF,TemperatureLowF,DewpointHighF,DewpointAvgF,DewpointLowF,HumidityHigh,HumidityAvg,HumidityLow,PressureMaxIn,PressureMinIn,WindSpeedMaxMPH,WindSpeedAvgMPH,GustSpeedMaxMPH,PrecipitationSumIn
2013-8-1,80,68,53,57,52,47,80,57,36,30.20,30.02,12,5,18,0.00
2013-8-2,72,65,59,60,55,52,88,71,50,30.21,30.03,14,6,19,0.02
2013-8-3,80,66,57,63,59,54,93,78,53,30.25,30.10,14,8,27,0.96
2013-8-4,81,68,58,62,59,56,95,77,46,30.14,30.03,7,2,12,0.00
2013-8-5,89,68,53,64,57,52,95,72,34,30.08,29.80,17,3,21,0.00
2013-8-6,82,65,56,59,56,52,94,74,36,30.12,29.91,24,6,34,0.14
2013-8-7,70,60,52,56,51,46,97,74,45,30.20,30.13,15,5,19,0.01
2013-8-8,75,62,46,54,49,45,94,66,39,30.29,30.18,11,4,17,0.00
2013-8-9,75,64,52,53,50,48,87,64,44,30.33,30.23,14,5,15,0.00
2013-8-10,82,66,57,63,56,51,87,73,46,30.26,30.09,23,7,30,0.55
2013-8-11,80,65,53,61,57,51,97,77,48,30.24,30.12,13,6,18,0.00
2013-8-12,82,69,57,61,56,53,90,65,41,30.20,30.12,17,7,21,0.00
2013-8-13,83,70,61,63,57,51,87,65,46,30.22,30.10,16,6,18,0.00
2013-8-14,74,65,60,65,61,59,95,88,65,30.13,30.07,11,3,15,0.83
2013-8-15,86,70,53,64,58,52,98,72,37,30.14,30.02,8,2,11,0.01
2013-8-16,99,78,59,67,57,45,89,57,16,30.03,29.86,9,4,14,0.00
2013-8-17,92,77,62,64,57,47,90,56,21,29.93,29.87,13,3,16,0.00
2013-8-18,89,73,59,61,56,51,87,61,27,30.08,29.90,12,3,23,0.05
2013-8-19,92,75,58,60,53,44,88,53,20,29.93,29.80,13,4,19,0.00
2013-8-20,87,74,57,55,50,46,81,48,25,29.94,29.79,16,6,21,0.00
2013-8-21,80,68,57,56,49,43,88,54,33,30.23,29.94,25,8,27,0.00
2013-8-22,87,71,50,60,53,44,80,55,35,30.27,29.97,18,6,19,0.00
2013-8-23,94,76,60,67,62,57,89,63,33,29.97,29.70,9,3,14,0.00
2013-8-24,91,77,63,63,56,50,78,50,26,29.90,29.71,13,3,22,0.01
2013-8-25,96,76,57,65,55,51,81,53,23,29.99,29.89,13,4,16,0.00
2013-8-26,95,78,64,64,58,52,81,54,23,29.92,29.85,12,2,16,0.00
2013-8-27,90,76,64,58,55,53,77,51,30,30.04,29.88,10,3,18,0.00
2013-8-28,96,76,61,68,61,53,93,63,25,29.99,29.85,14,5,26,0.22
2013-8-29,91,75,61,67,63,59,97,71,34,30.04,29.94,9,2,13,0.00
2013-8-30,94,75,59,63,57,44,93,59,18,30.02,29.86,11,2,13,0.00
2013-8-31,80,68,57,53,50,43,83,55,29,30.14,29.91,23,9,33,0.00